createdAt,value
2022-09-10T00:00:13.700Z,94.24
2022-09-10T00:01:13.684Z,94.34
2022-09-10T00:02:13.707Z,94.34
2022-09-10T00:03:13.757Z,94.44
2022-09-10T00:04:13.656Z,94.48
2022-09-10T00:05:13.644Z,94.54
2022-09-10T00:06:13.616Z,94.59
2022-09-10T00:07:13.624Z,94.54
2022-09-10T00:08:13.592Z,94.59
2022-09-10T00:09:13.592Z,94.69
2022-09-10T00:10:13.567Z,94.64
2022-09-10T00:11:13.572Z,94.48
2022-09-10T00:12:13.683Z,94.59
2022-09-10T00:13:13.553Z,94.59
2022-09-10T00:14:13.564Z,94.79
2022-09-10T00:15:13.524Z,94.74
2022-09-10T00:16:13.532Z,94.79
2022-09-10T00:17:13.505Z,94.89
2022-09-10T00:18:13.493Z,94.89
2022-09-10T00:19:13.498Z,94.89
2022-09-10T00:20:13.463Z,95.00
2022-09-10T00:21:13.466Z,95.09
2022-09-10T00:22:13.433Z,95.20
2022-09-10T00:23:13.442Z,95.20
2022-09-10T00:24:13.419Z,95.30
2022-09-10T00:25:13.414Z,95.20
2022-09-10T00:26:13.394Z,95.20
2022-09-10T00:27:13.391Z,95.09
2022-09-10T00:28:13.364Z,95.00
2022-09-10T00:29:13.364Z,94.89
2022-09-10T00:30:13.348Z,94.89
2022-09-10T00:31:13.416Z,94.89
2022-09-10T00:32:13.327Z,95.00
2022-09-10T00:33:13.323Z,95.00
2022-09-10T00:34:13.297Z,95.09
2022-09-10T00:35:13.304Z,95.00
2022-09-10T00:36:13.283Z,95.00
2022-09-10T00:37:13.274Z,95.09
2022-09-10T00:38:13.244Z,95.09
2022-09-10T00:39:13.254Z,95.09
2022-09-10T00:40:13.235Z,95.09
2022-09-10T00:41:13.233Z,95.09
2022-09-10T00:42:13.211Z,95.09
2022-09-10T00:43:13.214Z,95.09
2022-09-10T00:44:13.184Z,95.09
2022-09-10T00:45:13.185Z,95.20
2022-09-10T00:46:13.163Z,95.40
2022-09-10T00:47:13.195Z,95.40
2022-09-10T00:48:13.144Z,95.40
2022-09-10T00:49:13.152Z,95.50
2022-09-10T00:50:13.119Z,95.50
2022-09-10T00:51:13.114Z,95.50
2022-09-10T00:52:13.093Z,95.50
2022-09-10T00:53:13.105Z,95.30
2022-09-10T00:54:13.075Z,95.30
2022-09-10T00:55:13.073Z,95.30
2022-09-10T00:56:13.063Z,95.40
2022-09-10T00:57:13.051Z,95.50
2022-09-10T00:58:13.025Z,95.50
2022-09-10T00:59:13.037Z,95.61
2022-09-10T01:00:13.001Z,95.61
2022-09-10T01:01:13.021Z,95.50
2022-09-10T01:02:13.007Z,95.50
2022-09-10T01:03:12.985Z,95.50
2022-09-10T01:04:12.964Z,95.40
2022-09-10T01:05:12.954Z,95.30
2022-09-10T01:06:12.934Z,95.20
2022-09-10T01:07:12.943Z,95.20
2022-09-10T01:08:12.914Z,95.20
2022-09-10T01:09:12.915Z,95.30
2022-09-10T01:10:12.886Z,95.40
2022-09-10T01:11:12.892Z,95.50
2022-09-10T01:12:12.866Z,95.40
2022-09-10T01:13:12.885Z,95.40
2022-09-10T01:14:12.864Z,95.30
2022-09-10T01:15:12.855Z,94.79
2022-09-10T01:16:12.892Z,94.59
2022-09-10T01:17:12.827Z,94.59
2022-09-10T01:18:13.304Z,94.69
2022-09-10T01:19:12.861Z,94.79
2022-09-10T01:20:12.784Z,94.79
2022-09-10T01:21:12.774Z,94.79
2022-09-10T01:22:12.745Z,94.89
2022-09-10T01:23:17.484Z,94.89
2022-09-10T01:24:13.739Z,94.79
2022-09-10T01:25:12.735Z,94.79
2022-09-10T01:26:12.706Z,94.79
2022-09-10T01:27:12.706Z,94.79
2022-09-10T01:28:12.675Z,94.84
2022-09-10T01:29:12.686Z,94.73
2022-09-10T01:30:12.655Z,94.73
2022-09-10T01:31:12.709Z,94.73
2022-09-10T01:32:12.647Z,94.93
2022-09-10T01:33:13.472Z,94.93
2022-09-10T01:34:12.619Z,94.93
2022-09-10T01:35:12.614Z,94.93
2022-09-10T01:36:12.601Z,94.93
2022-09-10T01:37:12.595Z,95.04
2022-09-10T01:38:12.620Z,95.14
2022-09-10T01:39:12.574Z,95.14
2022-09-10T01:40:12.656Z,95.24
2022-09-10T01:41:12.557Z,95.24
2022-09-10T01:42:12.532Z,95.24
2022-09-10T01:43:12.533Z,95.24
2022-09-10T01:44:12.504Z,94.93
2022-09-10T01:45:12.674Z,94.84
2022-09-10T01:46:12.484Z,94.63
2022-09-10T01:47:12.482Z,94.59
2022-09-10T01:48:12.474Z,94.79
2022-09-10T01:49:12.493Z,94.69
2022-09-10T01:50:12.435Z,94.48
2022-09-10T01:51:12.916Z,94.48
2022-09-10T01:52:12.414Z,94.69
2022-09-10T01:53:13.034Z,94.69
2022-09-10T01:54:13.034Z,94.69
2022-09-10T01:55:12.403Z,94.69
2022-09-10T01:56:12.384Z,93.37
2022-09-10T01:57:12.375Z,93.26
2022-09-10T01:58:12.355Z,93.77
2022-09-10T01:59:12.362Z,94.08
2022-09-10T02:00:12.467Z,94.28
2022-09-10T02:01:12.390Z,94.38
2022-09-10T02:02:12.326Z,94.38
2022-09-10T02:03:12.314Z,94.38
2022-09-10T02:04:12.295Z,94.48
2022-09-10T02:05:12.313Z,94.38
2022-09-10T02:06:12.269Z,93.67
2022-09-10T02:07:12.274Z,93.87
2022-09-10T02:08:12.245Z,94.08
2022-09-10T02:09:12.245Z,94.38
2022-09-10T02:10:12.646Z,94.28
2022-09-10T02:11:12.232Z,94.38
2022-09-10T02:12:12.224Z,94.28
2022-09-10T02:13:12.220Z,94.08
2022-09-10T02:14:12.203Z,93.98
2022-09-10T02:15:12.206Z,93.98
2022-09-10T02:16:12.185Z,94.18
2022-09-10T02:17:12.176Z,93.83
2022-09-10T02:18:12.157Z,93.93
2022-09-10T02:19:12.136Z,94.13
2022-09-10T02:20:12.144Z,94.04
2022-09-10T02:21:12.122Z,94.04
2022-09-10T02:22:12.099Z,94.24
2022-09-10T02:23:12.098Z,94.34
2022-09-10T02:24:12.075Z,94.44
2022-09-10T02:25:12.076Z,94.38
2022-09-10T02:26:12.074Z,94.64
2022-09-10T02:27:12.068Z,94.34
2022-09-10T02:28:12.035Z,94.24
2022-09-10T02:29:12.035Z,94.13
2022-09-10T02:30:12.019Z,94.08
2022-09-10T02:31:12.059Z,94.13
2022-09-10T02:32:12.005Z,94.24
2022-09-10T02:33:12.006Z,94.34
2022-09-10T02:34:12.712Z,94.64
2022-09-10T02:35:12.025Z,94.34
2022-09-10T02:36:11.957Z,94.44
2022-09-10T02:37:11.949Z,94.54
2022-09-10T02:38:12.616Z,94.54
2022-09-10T02:39:11.935Z,94.44
2022-09-10T02:40:11.942Z,94.54
2022-09-10T02:41:11.905Z,94.24
2022-09-10T02:42:11.875Z,94.24
2022-09-10T02:43:11.886Z,94.34
2022-09-10T02:44:11.858Z,94.44
2022-09-10T02:45:11.876Z,93.93
2022-09-10T02:46:11.835Z,94.04
2022-09-10T02:47:11.846Z,94.13
2022-09-10T02:48:11.806Z,94.13
2022-09-10T02:49:11.859Z,94.04
2022-09-10T02:50:12.199Z,94.04
2022-09-10T02:51:11.833Z,94.04
2022-09-10T02:52:11.782Z,94.13
2022-09-10T02:53:11.774Z,94.13
2022-09-10T02:54:12.575Z,94.13
2022-09-10T02:55:12.477Z,94.24
2022-09-10T02:56:11.816Z,94.24
2022-09-10T02:57:11.737Z,94.24
2022-09-10T02:58:11.715Z,94.13
2022-09-10T02:59:11.717Z,94.24
2022-09-10T03:00:11.749Z,94.24
2022-09-10T03:01:11.759Z,94.13
2022-09-10T03:02:11.714Z,93.93
2022-09-10T03:03:11.676Z,94.04
2022-09-10T03:04:11.649Z,94.13
2022-09-10T03:05:11.837Z,94.04
2022-09-10T03:06:11.631Z,94.34
2022-09-10T03:07:11.626Z,94.34
2022-09-10T03:08:11.603Z,94.13
2022-09-10T03:09:11.616Z,93.43
2022-09-10T03:10:11.578Z,92.82
2022-09-10T03:11:11.720Z,93.22
2022-09-10T03:12:11.557Z,93.52
2022-09-10T03:13:11.567Z,93.73
2022-09-10T03:14:11.545Z,93.22
2022-09-10T03:15:11.545Z,93.32
2022-09-10T03:16:12.270Z,93.32
2022-09-10T03:17:11.525Z,93.43
2022-09-10T03:18:11.516Z,93.63
2022-09-10T03:19:11.512Z,93.63
2022-09-10T03:20:11.476Z,93.63
2022-09-10T03:21:12.286Z,93.52
2022-09-10T03:22:12.205Z,93.73
2022-09-10T03:23:11.475Z,93.93
2022-09-10T03:24:14.349Z,93.73
2022-09-10T03:25:11.453Z,93.83
2022-09-10T03:26:11.421Z,93.43
2022-09-10T03:27:12.232Z,93.52
2022-09-10T03:28:11.415Z,93.73
2022-09-10T03:29:11.406Z,93.83
2022-09-10T03:30:11.366Z,94.04
2022-09-10T03:31:11.435Z,94.04
2022-09-10T03:32:11.664Z,93.93
2022-09-10T03:33:12.175Z,94.13
2022-09-10T03:34:11.335Z,94.34
2022-09-10T03:35:12.225Z,94.34
2022-09-10T03:36:12.149Z,94.34
2022-09-10T03:37:12.037Z,94.13
2022-09-10T03:38:12.196Z,94.13
2022-09-10T03:39:11.697Z,94.13
2022-09-10T03:40:11.359Z,94.24
2022-09-10T03:41:11.271Z,94.04
2022-09-10T03:42:11.235Z,94.04
2022-09-10T03:43:11.424Z,94.04
2022-09-10T03:44:11.212Z,94.24
2022-09-10T03:45:11.236Z,94.13
2022-09-10T03:46:11.209Z,94.34
2022-09-10T03:47:11.186Z,94.34
2022-09-10T03:48:11.167Z,94.34
2022-09-10T03:49:11.912Z,94.04
2022-09-10T03:50:11.145Z,94.24
2022-09-10T03:51:11.148Z,94.24
2022-09-10T03:52:11.118Z,94.24
2022-09-10T03:53:12.034Z,94.44
2022-09-10T03:54:11.170Z,94.54
2022-09-10T03:55:11.137Z,94.54
2022-09-10T03:56:12.004Z,94.64
2022-09-10T03:57:11.920Z,94.44
2022-09-10T03:58:11.429Z,93.73
2022-09-10T03:59:11.072Z,94.24
2022-09-10T04:00:11.125Z,94.34
2022-09-10T04:01:11.077Z,94.54
2022-09-10T04:02:11.292Z,94.64
2022-09-10T04:03:11.010Z,94.85
2022-09-10T04:04:10.986Z,94.85
2022-09-10T04:05:10.995Z,94.74
2022-09-10T04:06:11.016Z,94.34
2022-09-10T04:07:10.977Z,94.04
2022-09-10T04:08:11.075Z,92.91
2022-09-10T04:09:11.299Z,93.52
2022-09-10T04:10:10.918Z,94.13
2022-09-10T04:11:10.920Z,94.44
2022-09-10T04:12:10.913Z,94.54
2022-09-10T04:13:10.906Z,94.44
2022-09-10T04:14:10.879Z,94.24
2022-09-10T04:15:10.917Z,94.34
2022-09-10T04:16:10.932Z,94.44
2022-09-10T04:17:10.896Z,94.44
2022-09-10T04:18:11.683Z,94.44
2022-09-10T04:19:10.894Z,94.24
2022-09-10T04:20:10.847Z,94.54
2022-09-10T04:21:10.795Z,94.64
2022-09-10T04:22:10.811Z,94.54
2022-09-10T04:23:10.778Z,94.64
2022-09-10T04:24:10.796Z,94.74
2022-09-10T04:25:10.777Z,94.44
2022-09-10T04:26:10.759Z,94.24
2022-09-10T04:27:10.744Z,94.34
2022-09-10T04:28:10.777Z,94.64
2022-09-10T04:29:11.451Z,94.54
2022-09-10T04:30:10.766Z,94.44
2022-09-10T04:31:10.726Z,94.34
2022-09-10T04:32:10.729Z,94.24
2022-09-10T04:33:10.667Z,94.44
2022-09-10T04:34:10.675Z,94.54
2022-09-10T04:35:11.367Z,94.54
2022-09-10T04:36:11.488Z,94.74
2022-09-10T04:37:10.677Z,94.64
2022-09-10T04:38:11.556Z,94.64
2022-09-10T04:39:11.077Z,94.44
2022-09-10T04:40:10.767Z,94.44
2022-09-10T04:41:10.676Z,94.44
2022-09-10T04:42:10.586Z,94.34
2022-09-10T04:43:10.554Z,94.34
2022-09-10T04:44:10.566Z,94.54
2022-09-10T04:45:10.557Z,94.74
2022-09-10T04:46:10.624Z,94.85
2022-09-10T04:47:10.826Z,94.95
2022-09-10T04:48:10.526Z,94.95
2022-09-10T04:49:10.528Z,94.85
2022-09-10T04:50:10.499Z,94.85
2022-09-10T04:51:18.308Z,95.05
2022-09-10T04:52:12.257Z,95.05
2022-09-10T04:53:10.468Z,94.95
2022-09-10T04:54:10.567Z,95.05
2022-09-10T04:55:10.568Z,95.05
2022-09-10T04:56:11.148Z,95.05
2022-09-10T04:57:11.272Z,95.05
2022-09-10T04:58:11.167Z,94.95
2022-09-10T04:59:10.428Z,94.64
2022-09-10T05:00:10.425Z,93.93
2022-09-10T05:01:10.383Z,93.52
2022-09-10T05:02:11.115Z,93.93
2022-09-10T05:03:11.205Z,94.04
2022-09-10T05:04:10.368Z,94.13
2022-09-10T05:05:10.324Z,94.13
2022-09-10T05:06:10.317Z,94.24
2022-09-10T05:07:10.307Z,93.73
2022-09-10T05:08:10.320Z,93.93
2022-09-10T05:09:11.139Z,94.13
2022-09-10T05:10:10.607Z,94.44
2022-09-10T05:11:11.198Z,94.54
2022-09-10T05:12:10.299Z,94.64
2022-09-10T05:13:11.006Z,94.74
2022-09-10T05:14:10.958Z,94.64
2022-09-10T05:15:11.079Z,94.64
2022-09-10T05:16:10.269Z,94.64
2022-09-10T05:17:11.138Z,94.64
2022-09-10T05:18:11.039Z,94.04
2022-09-10T05:19:10.241Z,94.13
2022-09-10T05:20:10.194Z,93.93
2022-09-10T05:21:10.162Z,93.89
2022-09-10T05:22:10.156Z,93.99
2022-09-10T05:23:10.127Z,94.20
2022-09-10T05:24:10.981Z,93.99
2022-09-10T05:25:10.879Z,94.09
2022-09-10T05:26:10.587Z,94.20
2022-09-10T05:27:10.947Z,93.89
2022-09-10T05:28:10.088Z,93.99
2022-09-10T05:29:10.808Z,94.09
2022-09-10T05:30:10.906Z,94.20
2022-09-10T05:31:10.085Z,94.20
2022-09-10T05:32:10.047Z,94.20
2022-09-10T05:33:10.019Z,94.29
2022-09-10T05:34:10.118Z,93.99
2022-09-10T05:35:10.127Z,93.89
2022-09-10T05:36:10.131Z,93.99
2022-09-10T05:37:10.247Z,93.68
2022-09-10T05:38:09.997Z,93.59
2022-09-10T05:39:09.988Z,93.68
2022-09-10T05:40:10.748Z,93.89
2022-09-10T05:41:10.669Z,93.99
2022-09-10T05:42:09.938Z,93.89
2022-09-10T05:43:09.907Z,93.68
2022-09-10T05:44:09.906Z,93.59
2022-09-10T05:45:09.887Z,92.77
2022-09-10T05:46:09.919Z,93.18
2022-09-10T05:47:09.874Z,93.28
2022-09-10T05:48:09.865Z,93.28
2022-09-10T05:49:09.856Z,93.38
2022-09-10T05:50:09.841Z,93.07
2022-09-10T05:51:09.827Z,92.83
2022-09-10T05:52:10.590Z,92.93
2022-09-10T05:53:09.832Z,92.93
2022-09-10T05:54:09.799Z,93.03
2022-09-10T05:55:09.841Z,91.82
2022-09-10T05:56:09.777Z,92.12
2022-09-10T05:57:10.626Z,91.51
2022-09-10T05:58:09.804Z,92.22
2022-09-10T05:59:10.690Z,92.52
2022-09-10T06:00:09.888Z,92.22
2022-09-10T06:01:09.701Z,91.91
2022-09-10T06:02:09.795Z,92.02
2022-09-10T06:03:10.280Z,92.32
2022-09-10T06:04:09.678Z,92.12
2022-09-10T06:05:09.658Z,91.16
2022-09-10T06:06:09.658Z,91.47
2022-09-10T06:07:09.637Z,91.47
2022-09-10T06:08:09.674Z,91.67
2022-09-10T06:09:09.612Z,91.87
2022-09-10T06:10:09.621Z,91.77
2022-09-10T06:11:09.598Z,91.36
2022-09-10T06:12:09.590Z,91.47
2022-09-10T06:13:09.561Z,91.47
2022-09-10T06:14:09.770Z,91.67
2022-09-10T06:15:09.547Z,91.77
2022-09-10T06:16:09.614Z,91.47
2022-09-10T06:17:09.539Z,91.16
2022-09-10T06:18:09.639Z,91.06
2022-09-10T06:19:10.309Z,91.67
2022-09-10T06:20:09.509Z,91.47
2022-09-10T06:21:09.487Z,91.36
2022-09-10T06:22:09.480Z,91.36
2022-09-10T06:23:09.453Z,91.67
2022-09-10T06:24:09.458Z,91.97
2022-09-10T06:25:09.765Z,91.56
2022-09-10T06:26:09.424Z,91.67
2022-09-10T06:27:09.410Z,91.67
2022-09-10T06:28:09.399Z,91.47
2022-09-10T06:29:09.395Z,91.56
2022-09-10T06:30:09.377Z,91.42
2022-09-10T06:31:09.380Z,91.12
2022-09-10T06:32:09.377Z,90.92
2022-09-10T06:33:09.337Z,90.81
2022-09-10T06:34:09.339Z,90.51
2022-09-10T06:35:09.307Z,90.41
2022-09-10T06:36:09.318Z,90.41
2022-09-10T06:37:09.287Z,90.41
2022-09-10T06:38:09.282Z,90.51
2022-09-10T06:39:09.267Z,90.71
2022-09-10T06:40:10.165Z,90.41
2022-09-10T06:41:09.332Z,90.31
2022-09-10T06:42:09.260Z,90.41
2022-09-10T06:43:09.218Z,90.31
2022-09-10T06:44:09.209Z,88.89
2022-09-10T06:45:09.188Z,88.68
2022-09-10T06:46:24.826Z,89.04
2022-09-10T06:47:46.289Z,89.35
2022-09-10T06:49:10.173Z,90.00
2022-09-10T06:50:09.147Z,90.20
2022-09-10T06:51:09.129Z,90.41
2022-09-10T06:52:09.138Z,90.51
2022-09-10T06:53:09.107Z,90.61
2022-09-10T06:54:09.107Z,90.61
2022-09-10T06:55:09.076Z,90.11
2022-09-10T06:56:09.080Z,90.00
2022-09-10T06:57:09.058Z,88.28
2022-09-10T06:58:09.067Z,89.04
2022-09-10T06:59:09.042Z,89.15
2022-09-10T07:00:09.036Z,89.15
2022-09-10T07:01:10.959Z,89.25
2022-09-10T07:02:09.061Z,89.65
2022-09-10T07:03:08.988Z,89.50
2022-09-10T07:04:08.998Z,90.00
2022-09-10T07:05:08.962Z,89.90
2022-09-10T07:06:08.967Z,89.29
2022-09-10T07:07:08.950Z,88.48
2022-09-10T07:08:08.939Z,87.87
2022-09-10T07:09:08.917Z,87.37
2022-09-10T07:10:08.916Z,88.18
2022-09-10T07:11:08.916Z,89.19
2022-09-10T07:12:08.909Z,89.59
2022-09-10T07:13:08.870Z,89.45
2022-09-10T07:14:08.878Z,89.25
2022-09-10T07:15:08.841Z,89.55
2022-09-10T07:16:08.904Z,89.35
2022-09-10T07:17:08.858Z,89.45
2022-09-10T07:18:08.828Z,89.45
2022-09-10T07:19:08.799Z,88.84
2022-09-10T07:20:08.813Z,88.75
2022-09-10T07:21:08.787Z,88.40
2022-09-10T07:22:08.788Z,88.49
2022-09-10T07:23:12.269Z,88.29
2022-09-10T07:24:08.763Z,87.99
2022-09-10T07:25:08.728Z,87.95
2022-09-10T07:26:08.737Z,87.85
2022-09-10T07:27:08.719Z,88.05
2022-09-10T07:28:08.719Z,87.04
2022-09-10T07:29:08.693Z,86.79
2022-09-10T07:30:08.692Z,85.68
2022-09-10T07:31:08.698Z,85.38
2022-09-10T07:32:12.834Z,84.42
2022-09-10T07:33:08.650Z,83.92
2022-09-10T07:34:08.653Z,85.10
2022-09-10T07:35:08.620Z,84.89
2022-09-10T07:36:08.629Z,84.19
2022-09-10T07:37:08.627Z,83.74
2022-09-10T07:38:08.602Z,83.84
2022-09-10T07:39:08.589Z,83.54
2022-09-10T07:40:08.628Z,83.54
2022-09-10T07:41:08.827Z,83.23
2022-09-10T07:42:08.842Z,80.77
2022-09-10T07:43:08.571Z,82.08
2022-09-10T07:44:08.539Z,83.09
2022-09-10T07:45:08.517Z,82.99
2022-09-10T07:46:08.562Z,82.49
2022-09-10T07:47:08.529Z,82.39
2022-09-10T07:48:08.500Z,82.89
2022-09-10T07:49:08.508Z,82.79
2022-09-10T07:50:08.471Z,83.29
2022-09-10T07:51:08.449Z,81.78
2022-09-10T07:52:08.479Z,82.39
2022-09-10T07:53:08.591Z,82.32
2022-09-10T07:54:08.420Z,82.53
2022-09-10T07:55:08.410Z,81.82
2022-09-10T07:56:08.419Z,82.73
2022-09-10T07:57:08.424Z,83.03
2022-09-10T07:58:08.382Z,83.33
2022-09-10T07:59:08.361Z,81.51
2022-09-10T08:00:08.362Z,79.59
2022-09-10T08:01:08.387Z,81.71
2022-09-10T08:02:09.147Z,81.01
2022-09-10T08:03:08.329Z,81.17
2022-09-10T08:04:08.346Z,82.08
2022-09-10T08:05:08.319Z,82.08
2022-09-10T08:06:08.301Z,81.03
2022-09-10T08:07:08.281Z,81.34
2022-09-10T08:08:08.325Z,82.24
2022-09-10T08:09:08.270Z,81.60
2022-09-10T08:10:08.252Z,81.20
2022-09-10T08:11:11.820Z,80.59
2022-09-10T08:12:08.230Z,80.43
2022-09-10T08:13:08.202Z,81.50
2022-09-10T08:14:08.241Z,81.90
2022-09-10T08:15:08.186Z,81.90
2022-09-10T08:16:08.261Z,80.99
2022-09-10T08:17:08.233Z,80.59
2022-09-10T08:18:08.171Z,80.79
2022-09-10T08:19:08.141Z,81.03
2022-09-10T08:20:08.190Z,81.44
2022-09-10T08:21:08.121Z,80.83
2022-09-10T08:22:13.252Z,81.94
2022-09-10T08:23:08.504Z,80.12
2022-09-10T08:24:08.103Z,79.62
2022-09-10T08:25:08.103Z,80.66
2022-09-10T08:26:08.878Z,81.27
2022-09-10T08:27:08.085Z,81.98
2022-09-10T08:28:08.932Z,80.57
2022-09-10T08:29:08.833Z,81.48
2022-09-10T08:30:08.087Z,82.08
2022-09-10T08:31:08.151Z,82.49
2022-09-10T08:32:08.042Z,81.78
2022-09-10T08:33:07.996Z,81.68
2022-09-10T08:34:07.985Z,82.39
2022-09-10T08:35:07.979Z,82.69
2022-09-10T08:36:08.677Z,82.49
2022-09-10T08:37:07.971Z,82.02
2022-09-10T08:38:08.181Z,81.71
2022-09-10T08:39:08.658Z,82.32
2022-09-10T08:40:08.861Z,82.83
2022-09-10T08:41:07.954Z,82.53
2022-09-10T08:42:08.610Z,82.62
2022-09-10T08:43:08.771Z,82.42
2022-09-10T08:44:07.905Z,80.80
2022-09-10T08:45:08.133Z,81.57
2022-09-10T08:46:08.055Z,81.07
2022-09-10T08:47:08.452Z,81.94
2022-09-10T08:48:08.545Z,80.08
2022-09-10T08:49:08.483Z,78.97
2022-09-10T08:50:07.853Z,80.05
2022-09-10T08:51:07.840Z,79.34
2022-09-10T08:52:08.672Z,79.54
2022-09-10T08:53:08.574Z,78.13
2022-09-10T08:54:08.483Z,78.94
2022-09-10T08:55:08.422Z,79.14
2022-09-10T08:56:08.555Z,78.74
2022-09-10T08:57:08.450Z,78.43
2022-09-10T08:58:07.741Z,78.94
2022-09-10T08:59:07.754Z,78.39
2022-09-10T09:00:08.413Z,77.89
2022-09-10T09:01:08.430Z,77.19
2022-09-10T09:02:07.781Z,77.55
2022-09-10T09:03:07.713Z,78.26
2022-09-10T09:04:08.542Z,77.35
2022-09-10T09:05:08.171Z,76.54
2022-09-10T09:06:07.623Z,77.15
2022-09-10T09:07:07.631Z,77.75
2022-09-10T09:08:07.662Z,76.95
2022-09-10T09:09:08.871Z,76.54
2022-09-10T09:10:08.485Z,76.68
2022-09-10T09:11:07.603Z,76.78
2022-09-10T09:12:07.543Z,77.69
2022-09-10T09:13:07.563Z,78.09
2022-09-10T09:14:07.572Z,77.59
2022-09-10T09:15:09.108Z,78.43
2022-09-10T09:16:08.443Z,78.43
2022-09-10T09:17:07.552Z,78.84
2022-09-10T09:18:07.484Z,78.74
2022-09-10T09:19:07.541Z,78.33
2022-09-10T09:20:07.494Z,78.74
2022-09-10T09:21:08.193Z,79.17
2022-09-10T09:22:07.484Z,79.58
2022-09-10T09:23:07.482Z,80.08
2022-09-10T09:24:15.443Z,78.67
2022-09-10T09:25:08.423Z,79.08
2022-09-10T09:26:07.482Z,79.48
2022-09-10T09:27:08.133Z,79.99
2022-09-10T09:28:07.594Z,80.69
2022-09-10T09:29:08.196Z,80.32
2022-09-10T09:30:07.617Z,81.44
2022-09-10T09:31:09.440Z,81.64
2022-09-10T09:32:08.173Z,81.94
2022-09-10T09:33:07.337Z,83.05
2022-09-10T09:34:08.226Z,83.80
2022-09-10T09:35:07.315Z,83.70
2022-09-10T09:36:08.034Z,84.41
2022-09-10T09:37:07.975Z,84.31
2022-09-10T09:38:07.464Z,84.31
2022-09-10T09:39:07.265Z,84.71
2022-09-10T09:40:07.535Z,85.02
2022-09-10T09:41:07.246Z,85.02
2022-09-10T09:42:07.236Z,84.71
2022-09-10T09:43:07.921Z,84.27
2022-09-10T09:44:07.216Z,83.66
2022-09-10T09:45:07.944Z,83.46
2022-09-10T09:46:07.220Z,82.10
2022-09-10T09:47:07.186Z,82.51
2022-09-10T09:48:07.912Z,82.27
2022-09-10T09:49:07.200Z,81.67
2022-09-10T09:50:07.137Z,80.92
2022-09-10T09:51:07.159Z,81.42
2022-09-10T09:52:07.113Z,80.72
2022-09-10T09:53:07.943Z,80.07
2022-09-10T09:54:39.287Z,79.67
2022-09-10T09:55:14.881Z,80.44
2022-09-10T09:56:08.959Z,79.23
2022-09-10T09:57:07.111Z,78.52
2022-09-10T09:58:07.044Z,77.98
2022-09-10T09:59:10.831Z,77.98
2022-09-10T10:00:08.093Z,77.98
2022-09-10T10:01:07.140Z,77.95
2022-09-10T10:02:07.227Z,77.55
2022-09-10T10:03:07.748Z,77.34
2022-09-10T10:04:07.907Z,76.90
2022-09-10T10:05:07.050Z,78.01
2022-09-10T10:06:06.965Z,78.11
2022-09-10T10:07:06.975Z,77.37
2022-09-10T10:08:06.934Z,76.76
2022-09-10T10:09:07.690Z,75.92
2022-09-10T10:10:07.625Z,75.52
2022-09-10T10:11:07.025Z,75.72
2022-09-10T10:12:07.648Z,74.62
2022-09-10T10:13:06.895Z,75.12
2022-09-10T10:14:07.719Z,74.21
2022-09-10T10:15:07.624Z,73.91
2022-09-10T10:16:07.594Z,74.25
2022-09-10T10:17:06.908Z,75.35
2022-09-10T10:18:06.836Z,74.65
2022-09-10T10:19:07.747Z,75.39
2022-09-10T10:20:07.649Z,76.10
2022-09-10T10:21:07.355Z,75.59
2022-09-10T10:22:07.815Z,76.03
2022-09-10T10:23:06.779Z,77.28
2022-09-10T10:24:06.797Z,78.28
2022-09-10T10:25:07.687Z,77.78
2022-09-10T10:26:07.587Z,77.31
2022-09-10T10:27:07.502Z,77.92
2022-09-10T10:28:06.717Z,79.03
2022-09-10T10:29:06.743Z,79.43
2022-09-10T10:30:06.740Z,80.04
2022-09-10T10:31:06.710Z,77.82
2022-09-10T10:32:06.695Z,77.78
2022-09-10T10:33:06.667Z,78.49
2022-09-10T10:34:07.587Z,78.79
2022-09-10T10:35:06.677Z,78.25
2022-09-10T10:36:07.398Z,78.45
2022-09-10T10:37:07.556Z,77.84
2022-09-10T10:38:06.615Z,78.35
2022-09-10T10:39:06.632Z,77.84
2022-09-10T10:40:07.561Z,78.39
2022-09-10T10:41:06.595Z,78.08
2022-09-10T10:42:06.758Z,78.08
2022-09-10T10:43:06.579Z,79.49
2022-09-10T10:44:06.634Z,79.73
2022-09-10T10:45:07.297Z,79.63
2022-09-10T10:46:11.211Z,80.88
2022-09-10T10:47:07.548Z,81.18
2022-09-10T10:48:06.815Z,81.99
2022-09-10T10:49:06.521Z,83.24
2022-09-10T10:50:06.717Z,82.13
2022-09-10T10:51:06.477Z,82.43
2022-09-10T10:52:06.460Z,83.14
2022-09-10T10:53:06.455Z,83.54
2022-09-10T10:54:07.240Z,83.34
2022-09-10T10:55:06.435Z,83.95
2022-09-10T10:56:06.457Z,84.15
2022-09-10T10:57:06.418Z,83.60
2022-09-10T10:58:06.385Z,84.41
2022-09-10T10:59:06.503Z,81.65
2022-09-10T11:00:06.439Z,81.85
2022-09-10T11:01:06.370Z,80.40
2022-09-10T11:02:06.389Z,79.19
2022-09-10T11:03:06.348Z,79.25
2022-09-10T11:04:06.309Z,79.46
2022-09-10T11:05:06.356Z,80.12
2022-09-10T11:06:06.360Z,79.92
2022-09-10T11:07:06.359Z,79.32
2022-09-10T11:08:06.277Z,78.07
2022-09-10T11:09:06.270Z,78.47
2022-09-10T11:10:06.266Z,78.14
2022-09-10T11:11:06.268Z,78.14
2022-09-10T11:12:06.221Z,76.93
2022-09-10T11:13:06.326Z,77.39
2022-09-10T11:14:06.210Z,76.39
2022-09-10T11:15:06.191Z,76.09
2022-09-10T11:16:06.243Z,75.79
2022-09-10T11:17:07.048Z,75.99
2022-09-10T11:18:06.197Z,75.68
2022-09-10T11:19:06.193Z,76.19
2022-09-10T11:20:27.119Z,75.49
2022-09-10T11:21:07.984Z,76.79
2022-09-10T11:22:06.883Z,75.29
2022-09-10T11:23:06.145Z,75.42
2022-09-10T11:24:06.879Z,76.12
2022-09-10T11:25:07.045Z,77.13
2022-09-10T11:26:06.944Z,76.63
2022-09-10T11:27:06.850Z,77.23
2022-09-10T11:28:06.088Z,76.56
2022-09-10T11:29:06.150Z,76.87
2022-09-10T11:30:06.563Z,77.17
2022-09-10T11:31:07.045Z,77.67
2022-09-10T11:32:06.135Z,77.27
2022-09-10T11:33:06.804Z,77.77
2022-09-10T11:34:06.030Z,76.06
2022-09-10T11:35:05.970Z,76.26
2022-09-10T11:36:05.957Z,76.46
2022-09-10T11:37:05.970Z,76.23
2022-09-10T11:38:06.821Z,76.73
2022-09-10T11:39:05.940Z,76.73
2022-09-10T11:40:06.020Z,76.73
2022-09-10T11:41:05.922Z,75.82
2022-09-10T11:42:05.893Z,77.00
2022-09-10T11:43:06.019Z,77.09
2022-09-10T11:44:05.882Z,75.49
2022-09-10T11:45:05.883Z,75.25
2022-09-10T11:46:06.610Z,75.15
2022-09-10T11:47:06.727Z,74.71
2022-09-10T11:48:05.868Z,74.27
2022-09-10T11:49:05.851Z,74.24
2022-09-10T11:50:05.845Z,73.84
2022-09-10T11:51:05.815Z,72.83
2022-09-10T11:52:05.783Z,72.63
2022-09-10T11:53:05.794Z,71.93
2022-09-10T11:54:05.843Z,73.50
2022-09-10T11:55:05.767Z,73.80
2022-09-10T11:56:05.744Z,71.00
2022-09-10T11:57:06.525Z,71.23
2022-09-10T11:58:05.713Z,72.24
2022-09-10T11:59:05.712Z,71.56
2022-09-10T12:00:05.712Z,73.00
2022-09-10T12:01:05.739Z,74.11
2022-09-10T12:02:05.729Z,74.51
2022-09-10T12:03:05.676Z,74.18
2022-09-10T12:04:05.644Z,73.41
2022-09-10T12:05:06.536Z,74.01
2022-09-10T12:06:06.437Z,73.50
2022-09-10T12:07:05.652Z,74.51
2022-09-10T12:08:05.702Z,74.51
2022-09-10T12:09:05.606Z,75.01
2022-09-10T12:10:05.614Z,74.48
2022-09-10T12:11:05.834Z,72.20
2022-09-10T12:12:05.564Z,73.41
2022-09-10T12:13:05.573Z,72.71
2022-09-10T12:14:06.221Z,74.01
2022-09-10T12:15:05.565Z,73.87
2022-09-10T12:16:06.317Z,73.33
2022-09-10T12:17:06.418Z,73.33
2022-09-10T12:18:05.575Z,72.90
2022-09-10T12:19:05.507Z,72.00
2022-09-10T12:20:05.472Z,72.47
2022-09-10T12:21:05.473Z,71.56
2022-09-10T12:22:05.486Z,71.36
2022-09-10T12:23:05.495Z,70.93
2022-09-10T12:24:05.425Z,68.76
2022-09-10T12:25:05.435Z,70.36
2022-09-10T12:26:05.535Z,70.66
2022-09-10T12:27:06.205Z,70.26
2022-09-10T12:28:05.453Z,68.49
2022-09-10T12:29:05.390Z,70.19
2022-09-10T12:30:05.399Z,70.69
2022-09-10T12:31:05.402Z,71.70
2022-09-10T12:32:05.363Z,72.50
2022-09-10T12:33:05.332Z,71.90
2022-09-10T12:34:05.317Z,71.00
2022-09-10T12:35:05.316Z,70.43
2022-09-10T12:36:05.320Z,71.20
2022-09-10T12:37:05.303Z,71.90
2022-09-10T12:38:05.909Z,72.80
2022-09-10T12:39:05.279Z,69.39
2022-09-10T12:40:05.311Z,70.89
2022-09-10T12:41:05.255Z,71.09
2022-09-10T12:42:05.618Z,72.09
2022-09-10T12:43:05.243Z,71.20
2022-09-10T12:44:05.218Z,70.29
2022-09-10T12:45:05.225Z,71.30
2022-09-10T12:46:05.328Z,72.30
2022-09-10T12:47:06.090Z,71.03
2022-09-10T12:48:05.165Z,71.86
2022-09-10T12:49:05.893Z,71.16
2022-09-10T12:50:05.161Z,72.87
2022-09-10T12:51:05.126Z,72.97
2022-09-10T12:52:05.117Z,72.37
2022-09-10T12:53:05.096Z,72.56